createdAt,value
2022-09-15T00:02:26.949Z,80.00
2022-09-15T00:04:58.309Z,80.41
2022-09-15T00:07:31.364Z,80.70
2022-09-15T00:10:05.313Z,80.47
2022-09-15T00:12:36.767Z,80.75
2022-09-15T00:15:08.509Z,81.20
2022-09-15T00:17:40.377Z,81.22
2022-09-15T00:20:11.845Z,81.60
2022-09-15T00:22:43.923Z,81.76
2022-09-15T00:25:15.600Z,81.84
2022-09-15T00:27:47.133Z,81.86
2022-09-15T00:30:18.544Z,81.98
2022-09-15T00:32:49.912Z,81.64
2022-09-15T00:35:21.293Z,81.71
2022-09-15T00:37:52.610Z,81.81
2022-09-15T00:40:24.055Z,81.71
2022-09-15T00:42:55.455Z,81.80
2022-09-15T00:45:27.362Z,81.46
2022-09-15T00:48:01.063Z,81.53
2022-09-15T00:50:34.538Z,81.44
2022-09-15T00:53:09.036Z,81.17
2022-09-15T00:55:48.013Z,81.50
2022-09-15T00:58:29.171Z,81.46
2022-09-15T01:01:03.932Z,81.46
2022-09-15T01:03:36.590Z,81.30
2022-09-15T01:06:20.722Z,81.09
2022-09-15T01:09:02.052Z,81.04
2022-09-15T01:11:34.257Z,81.34
2022-09-15T01:14:05.754Z,81.54
2022-09-15T01:16:40.414Z,81.41
2022-09-15T01:19:43.282Z,81.28
2022-09-15T01:22:32.844Z,81.32
2022-09-15T01:25:43.147Z,81.02
2022-09-15T01:28:44.378Z,80.95
2022-09-15T01:31:59.979Z,80.92
2022-09-15T01:34:43.790Z,80.76
2022-09-15T01:37:20.959Z,80.91
2022-09-15T01:39:54.347Z,80.75
2022-09-15T01:42:27.895Z,80.93
2022-09-15T01:45:06.382Z,80.94
2022-09-15T01:47:39.314Z,80.97
2022-09-15T01:50:18.289Z,81.24
2022-09-15T01:52:53.655Z,81.17
2022-09-15T01:55:32.324Z,81.45
2022-09-15T01:58:04.396Z,81.29
2022-09-15T02:00:41.482Z,81.61
2022-09-15T02:03:26.764Z,81.52
2022-09-15T02:06:07.118Z,82.05
2022-09-15T02:08:47.677Z,82.16
2022-09-15T02:11:23.924Z,82.35
2022-09-15T02:14:11.246Z,82.60
2022-09-15T02:16:49.819Z,82.60
2022-09-15T02:19:39.707Z,82.81
2022-09-15T02:22:27.066Z,82.97
2022-09-15T02:25:32.822Z,82.88
2022-09-15T02:28:07.208Z,82.85
2022-09-15T02:30:42.616Z,83.25
2022-09-15T02:33:19.738Z,83.07
2022-09-15T02:35:52.267Z,83.36
2022-09-15T02:38:30.053Z,83.53
2022-09-15T02:41:02.601Z,83.68
2022-09-15T02:43:34.150Z,83.39
2022-09-15T02:46:05.669Z,83.50
2022-09-15T02:48:36.997Z,83.64
2022-09-15T02:51:08.339Z,83.58
2022-09-15T02:53:41.083Z,84.08
2022-09-15T02:56:13.547Z,83.80
2022-09-15T02:58:44.853Z,83.79
2022-09-15T03:01:17.643Z,83.90
2022-09-15T03:03:48.995Z,83.57
2022-09-15T03:06:21.353Z,83.73
2022-09-15T03:08:58.455Z,84.22
2022-09-15T03:11:30.696Z,84.26
2022-09-15T03:14:06.824Z,84.21
2022-09-15T03:16:39.240Z,84.01
2022-09-15T03:19:10.616Z,84.21
2022-09-15T03:21:42.017Z,84.18
2022-09-15T03:24:15.279Z,83.94
2022-09-15T03:26:46.746Z,84.49
2022-09-15T03:29:18.152Z,84.61
2022-09-15T03:31:49.787Z,84.49
2022-09-15T03:34:21.199Z,84.25
2022-09-15T03:36:52.665Z,84.43
2022-09-15T03:39:25.092Z,84.67
2022-09-15T03:41:57.142Z,84.50
2022-09-15T03:44:28.782Z,84.65
2022-09-15T03:47:00.145Z,84.75
2022-09-15T03:49:32.624Z,84.71
2022-09-15T03:52:04.177Z,84.81
2022-09-15T03:54:35.620Z,84.71
2022-09-15T03:57:07.178Z,84.83
2022-09-15T03:59:39.658Z,84.63
2022-09-15T04:02:11.252Z,84.91
2022-09-15T04:04:42.632Z,84.70
2022-09-15T04:07:13.981Z,85.08
2022-09-15T04:09:45.976Z,85.10
2022-09-15T04:12:17.614Z,84.96
2022-09-15T04:14:55.466Z,84.97
2022-09-15T04:17:27.485Z,85.08
2022-09-15T04:19:58.857Z,85.33
2022-09-15T04:22:31.977Z,85.31
2022-09-15T04:25:03.807Z,85.39
2022-09-15T04:27:36.293Z,85.07
2022-09-15T04:30:08.462Z,85.23
2022-09-15T04:32:40.003Z,85.23
2022-09-15T04:35:12.169Z,85.62
2022-09-15T04:37:43.538Z,85.48
2022-09-15T04:40:16.772Z,85.50
2022-09-15T04:42:56.054Z,85.60
2022-09-15T04:45:34.384Z,85.42
2022-09-15T04:48:06.418Z,85.57
2022-09-15T04:50:37.759Z,85.52
2022-09-15T04:53:09.342Z,85.60
2022-09-15T04:55:40.808Z,85.67
2022-09-15T04:58:12.220Z,85.79
2022-09-15T05:00:43.854Z,85.78
2022-09-15T05:03:15.265Z,86.10
2022-09-15T05:05:47.573Z,85.88
2022-09-15T05:08:19.485Z,85.78
2022-09-15T05:10:50.946Z,85.79
2022-09-15T05:13:23.373Z,85.95
2022-09-15T05:15:54.792Z,85.97
2022-09-15T05:18:26.136Z,86.12
2022-09-15T05:21:01.498Z,86.03
2022-09-15T05:23:36.933Z,86.03
2022-09-15T05:26:12.731Z,86.14
2022-09-15T05:28:44.865Z,86.27
2022-09-15T05:31:22.363Z,86.24
2022-09-15T05:33:54.506Z,85.77
2022-09-15T05:36:25.921Z,85.99
2022-09-15T05:38:58.110Z,86.21
2022-09-15T05:41:29.937Z,86.20
2022-09-15T05:44:01.476Z,86.28
2022-09-15T05:46:32.996Z,86.14
2022-09-15T05:49:04.443Z,86.12
2022-09-15T05:51:36.289Z,86.16
2022-09-15T05:54:07.670Z,86.17
2022-09-15T05:56:39.072Z,86.15
2022-09-15T05:59:10.441Z,86.18
2022-09-15T06:01:41.846Z,86.45
2022-09-15T06:04:13.263Z,86.38
2022-09-15T06:06:44.605Z,86.41
2022-09-15T06:09:15.924Z,86.40
2022-09-15T06:11:47.359Z,86.06
2022-09-15T06:14:18.712Z,86.36
2022-09-15T06:16:50.126Z,86.30
2022-09-15T06:19:21.577Z,86.16
2022-09-15T06:21:53.887Z,85.89
2022-09-15T06:24:25.233Z,86.05
2022-09-15T06:26:56.661Z,85.87
2022-09-15T06:29:29.009Z,85.90
2022-09-15T06:32:02.758Z,85.82
2022-09-15T06:34:34.982Z,86.31
2022-09-15T06:37:06.453Z,86.05
2022-09-15T06:39:37.814Z,85.76
2022-09-15T06:42:13.332Z,85.44
2022-09-15T06:44:45.205Z,85.16
2022-09-15T06:47:16.620Z,84.86
2022-09-15T06:49:48.034Z,84.89
2022-09-15T06:52:19.346Z,85.05
2022-09-15T06:54:50.686Z,84.21
2022-09-15T06:57:22.039Z,83.75
2022-09-15T06:59:53.665Z,82.80
2022-09-15T07:02:25.104Z,82.86
2022-09-15T07:04:56.577Z,82.20
2022-09-15T07:07:27.847Z,81.57
2022-09-15T07:10:00.842Z,81.63
2022-09-15T07:12:32.472Z,81.29
2022-09-15T07:15:04.180Z,80.98
2022-09-15T07:17:37.289Z,80.41
2022-09-15T07:20:09.446Z,80.39
2022-09-15T07:22:41.093Z,80.10
2022-09-15T07:25:12.584Z,79.97
2022-09-15T07:27:44.132Z,79.43
2022-09-15T07:30:16.692Z,79.49
2022-09-15T07:32:48.123Z,79.24
2022-09-15T07:35:21.727Z,79.05
2022-09-15T07:37:53.164Z,78.39
2022-09-15T07:40:24.703Z,77.52
2022-09-15T07:42:57.323Z,77.46
2022-09-15T07:45:28.694Z,76.99
2022-09-15T07:48:00.238Z,77.23
2022-09-15T07:50:31.520Z,77.17
2022-09-15T07:53:03.521Z,77.05
2022-09-15T07:55:34.839Z,76.98
2022-09-15T07:58:06.133Z,76.96
2022-09-15T08:00:39.579Z,76.51
2022-09-15T08:03:12.483Z,76.28
2022-09-15T08:05:45.769Z,75.93
2022-09-15T08:08:17.462Z,75.87
2022-09-15T08:10:48.924Z,76.06
2022-09-15T08:13:20.612Z,75.62
2022-09-15T08:15:53.026Z,75.86
2022-09-15T08:18:24.471Z,75.68
2022-09-15T08:20:55.846Z,74.79
2022-09-15T08:23:27.366Z,74.65
2022-09-15T08:25:59.236Z,74.29
2022-09-15T08:28:30.559Z,74.97
2022-09-15T08:31:06.766Z,73.81
2022-09-15T08:33:41.975Z,73.32
2022-09-15T08:36:16.191Z,73.70
2022-09-15T08:38:48.087Z,74.04
2022-09-15T08:41:42.556Z,72.91
2022-09-15T08:44:45.399Z,72.85
2022-09-15T08:47:23.696Z,73.11
2022-09-15T08:50:03.479Z,72.83
2022-09-15T08:52:50.870Z,73.02
2022-09-15T08:55:41.509Z,72.71
2022-09-15T08:58:18.782Z,72.30
2022-09-15T09:00:55.651Z,72.33
2022-09-15T09:04:01.764Z,72.14
2022-09-15T09:06:41.170Z,72.30
2022-09-15T09:09:36.869Z,72.44
2022-09-15T09:12:32.994Z,71.43
2022-09-15T09:15:33.787Z,70.84
2022-09-15T09:18:29.659Z,70.51
2022-09-15T09:21:19.923Z,70.46
2022-09-15T09:24:04.000Z,70.63
2022-09-15T09:26:36.679Z,70.31
2022-09-15T09:29:17.016Z,70.51
2022-09-15T09:31:50.694Z,70.31
2022-09-15T09:34:45.812Z,70.16
2022-09-15T09:37:17.364Z,69.71
2022-09-15T09:39:48.912Z,70.27
2022-09-15T09:42:26.625Z,70.02
2022-09-15T09:44:58.120Z,69.75
2022-09-15T09:47:29.854Z,69.18
2022-09-15T09:50:01.217Z,69.22
2022-09-15T09:52:34.253Z,68.96
2022-09-15T09:55:27.082Z,67.99
2022-09-15T09:58:14.442Z,68.12
2022-09-15T10:00:46.356Z,67.69
2022-09-15T10:03:30.656Z,66.46
2022-09-15T10:06:06.024Z,67.20
2022-09-15T10:08:51.883Z,66.83
2022-09-15T10:11:48.649Z,65.59
2022-09-15T10:14:28.964Z,65.16
2022-09-15T10:17:06.053Z,64.36
2022-09-15T10:19:54.240Z,64.36
2022-09-15T10:22:38.506Z,63.59
2022-09-15T10:25:21.973Z,62.39
2022-09-15T10:28:02.418Z,62.89
2022-09-15T10:30:34.748Z,63.29
2022-09-15T10:33:22.919Z,63.38
2022-09-15T10:35:59.679Z,64.82
2022-09-15T10:38:34.803Z,66.03
2022-09-15T10:41:28.267Z,67.66
2022-09-15T10:44:22.771Z,68.51
2022-09-15T10:47:12.380Z,68.69
2022-09-15T10:50:00.573Z,69.42
2022-09-15T10:52:38.014Z,70.00
2022-09-15T10:55:48.896Z,70.58
2022-09-15T10:58:45.633Z,70.62
2022-09-15T11:01:26.247Z,71.19
2022-09-15T11:04:08.022Z,71.07
2022-09-15T11:06:53.538Z,71.15
2022-09-15T11:09:34.743Z,71.70
2022-09-15T11:12:30.879Z,72.13
2022-09-15T11:15:30.305Z,72.34
2022-09-15T11:18:11.181Z,72.00
2022-09-15T11:21:07.126Z,72.52
2022-09-15T11:24:10.973Z,72.27
2022-09-15T11:26:52.716Z,72.44
2022-09-15T11:29:37.659Z,71.84
2022-09-15T11:32:15.160Z,71.68
2022-09-15T11:34:56.839Z,71.79
2022-09-15T11:37:39.063Z,72.09
2022-09-15T11:40:36.045Z,70.56
2022-09-15T11:43:37.704Z,69.50
2022-09-15T11:46:15.032Z,68.72
2022-09-15T11:49:02.790Z,66.82
2022-09-15T11:51:42.879Z,68.24
2022-09-15T11:54:23.031Z,69.38
2022-09-15T11:56:56.332Z,69.71
2022-09-15T11:59:54.720Z,70.43
2022-09-15T12:02:34.665Z,70.91
2022-09-15T12:05:15.159Z,70.64
2022-09-15T12:08:12.737Z,70.41
2022-09-15T12:10:48.949Z,71.47
2022-09-15T12:13:24.093Z,72.18
2022-09-15T12:15:57.450Z,72.55
2022-09-15T12:18:55.228Z,73.01
2022-09-15T12:21:35.857Z,72.93
2022-09-15T12:24:17.472Z,73.58
2022-09-15T12:26:49.397Z,73.31
2022-09-15T12:29:26.956Z,72.71
2022-09-15T12:32:18.078Z,72.14
2022-09-15T12:35:01.744Z,72.22
2022-09-15T12:37:44.191Z,72.50
2022-09-15T12:40:33.384Z,72.88
2022-09-15T12:43:11.251Z,72.35
2022-09-15T12:45:54.574Z,71.71
2022-09-15T12:48:31.377Z,71.14
2022-09-15T12:51:10.401Z,70.50
2022-09-15T12:53:56.032Z,69.64
2022-09-15T12:56:31.195Z,69.56
2022-09-15T12:59:06.812Z,68.86
2022-09-15T13:01:48.965Z,67.71
2022-09-15T13:04:44.285Z,68.33
2022-09-15T13:07:15.650Z,68.44
2022-09-15T13:10:27.025Z,66.36
2022-09-15T13:13:10.858Z,67.11
2022-09-15T13:15:50.141Z,66.17
2022-09-15T13:18:23.423Z,65.49
2022-09-15T13:21:05.259Z,64.69
2022-09-15T13:23:41.364Z,64.94
2022-09-15T13:26:17.710Z,63.97
2022-09-15T13:28:54.099Z,63.67
2022-09-15T13:31:37.587Z,62.73
2022-09-15T13:35:04.034Z,62.47
2022-09-15T13:38:21.724Z,63.92
2022-09-15T13:41:16.352Z,65.82
2022-09-15T13:44:00.967Z,67.39
2022-09-15T13:46:40.973Z,68.87
2022-09-15T13:49:38.735Z,70.25
2022-09-15T13:52:19.312Z,70.83
2022-09-15T13:55:21.526Z,71.31
2022-09-15T14:00:58.757Z,70.94
2022-09-15T14:03:39.680Z,70.74
2022-09-15T14:06:17.894Z,69.48
2022-09-15T14:08:54.961Z,69.20
2022-09-15T14:11:31.437Z,68.98
2022-09-15T14:14:06.694Z,69.16
2022-09-15T14:16:39.206Z,69.36
2022-09-15T14:19:32.327Z,68.67
2022-09-15T14:22:35.329Z,68.68
2022-09-15T14:25:14.121Z,68.99
2022-09-15T14:27:47.998Z,68.30
2022-09-15T14:30:27.614Z,68.13
2022-09-15T14:33:02.784Z,68.12
2022-09-15T14:35:37.143Z,67.58
2022-09-15T14:38:23.289Z,66.99
2022-09-15T14:40:56.812Z,67.30
2022-09-15T14:43:35.437Z,66.98
2022-09-15T14:46:15.270Z,66.89
2022-09-15T14:48:51.026Z,67.48
2022-09-15T14:51:25.603Z,67.43
2022-09-15T14:54:00.615Z,67.19
2022-09-15T14:56:36.039Z,67.42
2022-09-15T14:59:15.210Z,66.53
2022-09-15T15:02:19.647Z,65.91
2022-09-15T15:04:58.543Z,65.81
2022-09-15T15:07:33.267Z,65.13
2022-09-15T15:10:14.609Z,64.74
2022-09-15T15:12:50.322Z,64.32
2022-09-15T15:15:22.510Z,63.92
2022-09-15T15:17:54.734Z,63.27
2022-09-15T15:20:30.217Z,62.52
2022-09-15T15:23:19.664Z,62.61
2022-09-15T15:25:51.638Z,62.29
2022-09-15T15:28:34.583Z,62.39
2022-09-15T15:31:20.866Z,62.89
2022-09-15T15:33:59.443Z,63.18
2022-09-15T15:36:33.135Z,63.08
2022-09-15T15:39:07.871Z,63.15
2022-09-15T15:41:41.972Z,62.87
2022-09-15T15:44:13.405Z,62.83
2022-09-15T15:46:51.556Z,62.38
2022-09-15T15:49:29.063Z,62.52
2022-09-15T15:52:01.662Z,62.65
2022-09-15T15:54:34.205Z,62.39
2022-09-15T15:57:27.140Z,62.00
2022-09-15T16:00:00.559Z,62.26
2022-09-15T16:02:32.067Z,62.26
2022-09-15T16:05:04.802Z,62.05
2022-09-15T16:07:37.472Z,62.14
2022-09-15T16:10:14.602Z,62.16
2022-09-15T16:12:45.946Z,61.99
2022-09-15T16:15:20.357Z,62.03
2022-09-15T16:17:51.680Z,61.97
2022-09-15T16:20:25.054Z,62.29
2022-09-15T16:22:57.298Z,62.76
2022-09-15T16:25:47.959Z,62.58
2022-09-15T16:28:19.999Z,63.02
2022-09-15T16:30:51.393Z,63.11
2022-09-15T16:33:23.420Z,63.36
2022-09-15T16:36:03.663Z,63.86
2022-09-15T16:38:36.089Z,64.12
2022-09-15T16:41:25.721Z,64.18
2022-09-15T16:43:57.109Z,64.70
2022-09-15T16:46:29.139Z,64.49
2022-09-15T16:49:01.605Z,65.00
2022-09-15T16:51:32.911Z,64.99
2022-09-15T16:54:13.779Z,65.14
2022-09-15T16:56:46.075Z,65.59
2022-09-15T16:59:17.804Z,65.76
2022-09-15T17:01:49.199Z,66.04
2022-09-15T17:04:20.868Z,66.03
2022-09-15T17:06:52.162Z,66.28
2022-09-15T17:09:23.573Z,66.25
2022-09-15T17:11:55.560Z,66.54
2022-09-15T17:14:26.912Z,66.83
2022-09-15T17:16:58.248Z,66.81
2022-09-15T17:19:29.522Z,67.14
2022-09-15T17:22:01.545Z,67.48
2022-09-15T17:24:32.846Z,66.96
2022-09-15T17:27:04.239Z,67.41
2022-09-15T17:29:35.633Z,67.34
2022-09-15T17:32:08.817Z,67.72
2022-09-15T17:34:40.084Z,67.85
2022-09-15T17:37:11.640Z,68.08
2022-09-15T17:39:43.169Z,68.41
2022-09-15T17:42:14.448Z,68.22
2022-09-15T17:44:45.799Z,68.49
2022-09-15T17:47:17.165Z,68.42
2022-09-15T17:49:48.565Z,68.46
2022-09-15T17:52:20.014Z,68.71
2022-09-15T17:54:51.378Z,68.76
2022-09-15T17:57:23.000Z,69.05
2022-09-15T17:59:54.280Z,69.18
2022-09-15T18:02:25.662Z,69.13
2022-09-15T18:04:57.337Z,69.29
2022-09-15T18:07:29.343Z,69.34
2022-09-15T18:10:00.975Z,70.00
2022-09-15T18:12:32.320Z,69.91
2022-09-15T18:15:03.982Z,70.31
2022-09-15T18:17:35.379Z,70.51
2022-09-15T18:20:07.123Z,70.81
2022-09-15T18:22:38.457Z,71.28
2022-09-15T18:25:16.629Z,71.75
2022-09-15T18:27:49.265Z,72.03
2022-09-15T18:30:22.605Z,72.81
2022-09-15T18:32:54.134Z,72.91
2022-09-15T18:35:25.857Z,73.49
2022-09-15T18:37:59.567Z,74.08
2022-09-15T18:40:30.870Z,73.97
2022-09-15T18:43:02.293Z,74.56
2022-09-15T18:45:33.752Z,74.80
2022-09-15T18:48:09.163Z,74.88
2022-09-15T18:50:44.449Z,74.92
2022-09-15T18:53:15.791Z,75.46
2022-09-15T18:55:47.530Z,75.70
2022-09-15T18:58:22.600Z,75.78
2022-09-15T19:00:59.417Z,76.04
2022-09-15T19:04:51.236Z,75.83
2022-09-15T19:07:26.320Z,76.26
2022-09-15T19:10:00.574Z,76.25
2022-09-15T19:12:31.930Z,76.53
2022-09-15T19:15:10.867Z,76.92
2022-09-15T19:17:43.772Z,77.49
2022-09-15T19:20:15.711Z,77.47
2022-09-15T19:22:47.455Z,77.41
2022-09-15T19:25:19.460Z,77.57
2022-09-15T19:27:50.794Z,77.51
2022-09-15T19:30:22.395Z,77.92
2022-09-15T19:32:54.435Z,77.89
2022-09-15T19:35:25.910Z,77.76
2022-09-15T19:37:57.174Z,78.20
2022-09-15T19:40:28.486Z,78.73
2022-09-15T19:42:59.911Z,79.27
2022-09-15T19:45:31.267Z,79.64
2022-09-15T19:48:02.882Z,80.02
2022-09-15T19:50:34.154Z,80.50
2022-09-15T19:53:05.473Z,80.89
2022-09-15T19:55:36.773Z,81.08
2022-09-15T19:58:08.093Z,81.69
2022-09-15T20:00:39.366Z,81.88
2022-09-15T20:03:10.651Z,82.26
2022-09-15T20:05:42.147Z,82.38
2022-09-15T20:08:13.462Z,82.74
2022-09-15T20:10:45.906Z,82.81
2022-09-15T20:13:18.301Z,83.13
2022-09-15T20:16:01.897Z,83.54
2022-09-15T20:18:33.578Z,83.97
2022-09-15T20:21:07.650Z,84.22
2022-09-15T20:23:38.960Z,84.31
2022-09-15T20:26:12.365Z,84.39
2022-09-15T20:28:44.201Z,84.39
2022-09-15T20:31:19.083Z,84.34
2022-09-15T20:33:51.851Z,84.54
2022-09-15T20:36:28.472Z,84.72
2022-09-15T20:39:01.131Z,84.77
2022-09-15T20:41:32.448Z,85.05
2022-09-15T20:44:05.147Z,85.07
2022-09-15T20:46:36.616Z,85.22
2022-09-15T20:49:09.252Z,85.34
2022-09-15T20:51:40.639Z,85.53
2022-09-15T20:54:11.986Z,85.38
2022-09-15T20:56:43.290Z,85.75
2022-09-15T20:59:15.096Z,85.79
2022-09-15T21:01:46.639Z,86.06
2022-09-15T21:04:18.563Z,86.33
2022-09-15T21:06:50.119Z,86.48
2022-09-15T21:09:21.380Z,86.55
2022-09-15T21:11:53.707Z,86.63
2022-09-15T21:14:25.217Z,86.45
2022-09-15T21:16:56.486Z,86.62
2022-09-15T21:19:27.800Z,86.54
2022-09-15T21:21:59.361Z,86.72
2022-09-15T21:24:30.612Z,86.83
2022-09-15T21:27:20.395Z,86.99
2022-09-15T21:29:51.696Z,87.07
2022-09-15T21:32:24.243Z,86.79
2022-09-15T21:34:55.788Z,87.13
2022-09-15T21:37:27.813Z,87.49
2022-09-15T21:39:59.480Z,87.52
2022-09-15T21:42:30.752Z,87.19
2022-09-15T21:45:02.079Z,87.32
2022-09-15T21:47:34.113Z,87.61
2022-09-15T21:50:05.868Z,87.44
2022-09-15T21:52:37.278Z,87.30
2022-09-15T21:55:09.039Z,87.83
2022-09-15T21:57:40.316Z,87.38
2022-09-15T22:00:12.525Z,87.66
2022-09-15T22:02:43.793Z,87.43
2022-09-15T22:05:15.170Z,88.07
2022-09-15T22:07:46.437Z,88.39
2022-09-15T22:10:17.712Z,88.46
2022-09-15T22:12:52.098Z,88.32
2022-09-15T22:15:23.982Z,88.17
2022-09-15T22:17:56.469Z,88.50
2022-09-15T22:20:28.253Z,88.30
2022-09-15T22:23:02.582Z,88.47
2022-09-15T22:25:33.944Z,88.29
2022-09-15T22:28:05.196Z,88.43
2022-09-15T22:30:36.467Z,88.35
2022-09-15T22:33:07.720Z,88.19
2022-09-15T22:35:38.987Z,88.20
2022-09-15T22:38:10.344Z,87.91
2022-09-15T22:40:41.638Z,88.06
2022-09-15T22:43:13.038Z,88.00
2022-09-15T22:45:44.394Z,88.08
2022-09-15T22:48:15.730Z,88.28
2022-09-15T22:50:47.076Z,88.01
2022-09-15T22:53:18.600Z,88.17
2022-09-15T22:55:50.546Z,88.27
2022-09-15T22:58:21.801Z,88.22
2022-09-15T23:00:53.175Z,88.47
2022-09-15T23:03:24.501Z,88.80
2022-09-15T23:06:00.152Z,89.02
2022-09-15T23:08:32.768Z,88.98
2022-09-15T23:11:12.785Z,89.43
2022-09-15T23:13:44.045Z,89.28
2022-09-15T23:16:15.946Z,89.68
2022-09-15T23:18:48.203Z,89.43
2022-09-15T23:21:20.419Z,89.14
2022-09-15T23:23:53.998Z,89.25
2022-09-15T23:26:26.634Z,89.23
2022-09-15T23:28:58.006Z,89.31
2022-09-15T23:31:29.318Z,89.37
2022-09-15T23:34:00.592Z,89.37
2022-09-15T23:36:31.962Z,89.52
2022-09-15T23:39:03.562Z,89.08
2022-09-15T23:41:36.632Z,89.31
2022-09-15T23:44:07.957Z,89.60
2022-09-15T23:46:39.267Z,89.45
2022-09-15T23:49:11.409Z,89.83
2022-09-15T23:51:43.921Z,89.74
2022-09-15T23:54:16.034Z,90.04
2022-09-15T23:56:47.297Z,89.72
2022-09-15T23:59:18.716Z,89.97
